Time;durP1;ratioP1;P1;durP2;ratioP2;P2;SDS_P1;SDS_P2;PMS_P1;PMS_P2;Temp;Humidity;BMP_temperature;BMP_pressure;BME280_temperature;BME280_humidity;BME280_pressure;Samples;Min_cycle;Max_cycle;Signal;HPM_P1;HPM_P2
2022/03/12 00:00:08;;;;;;;6.07;3.40;;;;;;;-3.33;53.82;98096.34;6127777;23;20169;-91
2022/03/12 00:02:39;;;;;;;9.63;4.33;;;;;;;-3.13;53.22;98094.28;6124709;23;20220;-89
2022/03/12 00:05:08;;;;;;;7.43;3.10;;;;;;;-3.12;53.81;98101.06;6124179;23;20232;-90
2022/03/12 00:07:37;;;;;;;6.20;2.73;;;;;;;-3.50;54.06;98041.88;6129342;23;20178;-87
2022/03/12 00:10:05;;;;;;;6.33;3.37;;;;;;;-2.97;53.11;98106.50;6138661;23;20285;-91
2022/03/12 00:12:34;;;;;;;5.37;3.13;;;;;;;-3.06;53.23;98113.00;6123731;23;20203;-90
2022/03/12 00:15:10;;;;;;;6.87;3.90;;;;;;;-3.26;52.37;98071.16;6124103;23;20524;-89
2022/03/12 00:17:43;;;;;;;8.53;4.50;;;;;;;-3.38;52.61;98044.72;6126927;23;20523;-93
2022/03/12 00:20:16;;;;;;;4.67;3.33;;;;;;;-2.96;52.97;98122.53;6127880;23;20525;-88
2022/03/12 00:22:48;;;;;;;5.17;3.27;;;;;;;-3.07;52.20;98113.84;6126666;23;20190;-92
2022/03/12 00:25:22;;;;;;;6.33;3.20;;;;;;;-3.26;52.40;98056.84;6136995;23;20168;-89
2022/03/12 00:27:50;;;;;;;5.17;2.80;;;;;;;-3.26;52.06;98077.09;6141556;23;20176;-91
2022/03/12 00:30:24;;;;;;;5.27;2.90;;;;;;;-3.20;52.27;98116.88;6136391;23;20164;-93
2022/03/12 00:32:53;;;;;;;14.77;4.47;;;;;;;-3.52;53.75;98068.84;6122060;23;20196;-92
2022/03/12 00:35:20;;;;;;;6.27;3.77;;;;;;;-3.28;53.71;98088.00;6124872;23;20168;-89
2022/03/12 00:37:47;;;;;;;5.43;3.53;;;;;;;-3.15;53.49;98072.28;6096700;23;20243;-91
2022/03/12 00:40:19;;;;;;;6.27;3.57;;;;;;;-2.71;52.86;98114.69;6121333;23;20583;-90
2022/03/12 00:42:46;;;;;;;5.87;3.37;;;;;;;-3.00;51.64;98059.97;6121518;23;20193;-88
2022/03/12 00:45:15;;;;;;;6.53;3.57;;;;;;;-2.60;52.11;98108.22;6123536;23;20532;-90
2022/03/12 00:47:42;;;;;;;7.00;3.20;;;;;;;-2.61;51.60;98092.13;6122703;23;20232;-90
2022/03/12 00:50:09;;;;;;;6.20;3.63;;;;;;;-2.70;52.11;98081.78;6120827;23;20601;-90
2022/03/12 00:52:36;;;;;;;5.43;3.57;;;;;;;-2.56;53.02;98104.91;6123294;23;20204;-88
2022/03/12 00:55:04;;;;;;;6.77;3.87;;;;;;;-2.65;53.45;98094.56;6121413;23;20174;-87
2022/03/12 00:57:31;;;;;;;6.93;3.60;;;;;;;-2.76;53.96;98096.00;6122650;23;20240;-87
2022/03/12 01:00:01;;;;;;;4.23;3.33;;;;;;;-2.59;54.23;98094.69;6121725;23;20560;-87
2022/03/12 01:02:29;;;;;;;6.57;3.93;;;;;;;-2.85;54.57;98050.19;6123089;23;20198;-87
2022/03/12 01:04:56;;;;;;;7.60;3.80;;;;;;;-2.60;54.07;98111.56;6121682;23;20775;-89
2022/03/12 01:07:23;;;;;;;5.90;4.00;;;;;;;-2.78;54.12;98078.22;6128061;23;20211;-88
2022/03/12 01:09:53;;;;;;;6.57;3.73;;;;;;;-2.89;54.59;98097.41;6136165;23;20174;-88
2022/03/12 01:12:20;;;;;;;7.67;4.27;;;;;;;-2.96;54.79;98077.81;6125481;23;20169;-89
2022/03/12 01:14:47;;;;;;;6.63;3.63;;;;;;;-2.95;55.08;98058.41;6122854;23;20514;-89
2022/03/12 01:17:15;;;;;;;8.33;4.30;;;;;;;-2.69;55.04;98091.09;6121226;23;20170;-90
2022/03/12 01:19:43;;;;;;;5.87;3.90;;;;;;;-3.08;55.94;98061.47;6123366;23;20173;-91
2022/03/12 01:22:14;;;;;;;7.13;4.40;;;;;;;-2.90;55.79;98077.06;6120507;23;20244;-92
2022/03/12 01:24:41;;;;;;;4.93;3.50;;;;;;;-2.80;55.48;98102.66;6122803;23;20184;-90
2022/03/12 01:27:08;;;;;;;6.43;4.00;;;;;;;-2.90;55.44;98092.28;6121344;23;20175;-89
2022/03/12 01:29:35;;;;;;;7.43;3.90;;;;;;;-3.27;56.60;98098.16;6122255;23;20217;-90
2022/03/12 01:32:03;;;;;;;8.47;4.00;;;;;;;-3.09;56.32;98085.09;6122823;23;20257;-90
2022/03/12 01:34:30;;;;;;;7.50;4.10;;;;;;;-3.10;55.60;98080.84;6119569;23;20197;-90
2022/03/12 01:36:57;;;;;;;6.57;3.80;;;;;;;-3.05;55.85;98075.03;6122815;23;20557;-90
2022/03/12 01:39:24;;;;;;;8.97;4.23;;;;;;;-2.88;55.36;98090.63;6119818;23;20624;-91
2022/03/12 01:41:52;;;;;;;6.00;3.77;;;;;;;-2.97;54.90;98086.25;6123230;23;20245;-90
2022/03/12 01:44:21;;;;;;;5.27;3.80;;;;;;;-3.03;55.35;98049.78;6124578;23;20169;-90
2022/03/12 01:46:49;;;;;;;6.90;3.80;;;;;;;-2.70;54.79;98093.63;6121012;23;20199;-88
2022/03/12 01:49:23;;;;;;;9.20;4.50;;;;;;;-2.79;54.84;98081.59;6126127;23;20260;-89
2022/03/12 01:51:53;;;;;;;6.93;4.40;;;;;;;-2.94;55.45;98095.56;6126061;23;20166;-88
2022/03/12 01:54:26;;;;;;;9.07;4.50;;;;;;;-2.99;55.71;98095.47;6135740;23;20199;-92
2022/03/12 01:56:54;;;;;;;7.53;4.80;;;;;;;-2.90;55.12;98097.34;6121121;23;20185;-89
2022/03/12 01:59:21;;;;;;;9.13;5.47;;;;;;;-3.14;56.83;98099.31;6121726;23;20161;-89
2022/03/12 02:01:52;;;;;;;11.30;5.63;;;;;;;-3.26;57.27;98106.59;6119568;23;20283;-89
2022/03/12 02:04:22;;;;;;;9.30;4.60;;;;;;;-3.51;57.82;98095.88;6120358;23;20251;-88
2022/03/12 02:06:50;;;;;;;15.27;6.97;;;;;;;-3.65;57.07;98053.31;6121730;23;20174;-88
2022/03/12 02:09:19;;;;;;;12.03;5.47;;;;;;;-3.71;58.12;98081.81;6118243;23;20186;-88
2022/03/12 02:11:52;;;;;;;11.07;5.17;;;;;;;-3.55;58.21;98104.22;6121405;23;20172;-87
2022/03/12 02:14:22;;;;;;;8.23;5.17;;;;;;;-3.45;59.10;98087.56;6118798;23;20209;-87
2022/03/12 02:16:56;;;;;;;10.80;5.33;;;;;;;-3.41;58.49;98069.09;6120831;23;20172;-89
2022/03/12 02:19:26;;;;;;;10.63;5.60;;;;;;;-3.20;58.40;98106.75;6119866;23;20585;-87
2022/03/12 02:21:56;;;;;;;8.20;5.20;;;;;;;-3.33;58.40;98082.81;6118432;23;20249;-88
2022/03/12 02:24:26;;;;;;;11.63;6.40;;;;;;;-3.21;58.52;98079.75;6119562;23;20529;-88
2022/03/12 02:26:55;;;;;;;8.93;5.57;;;;;;;-3.21;56.75;98067.06;6118551;23;20245;-88
2022/03/12 02:29:23;;;;;;;9.73;5.73;;;;;;;-3.52;56.82;98040.13;6120968;23;20170;-89
2022/03/12 02:32:02;;;;;;;11.13;5.83;;;;;;;-3.59;58.08;98096.50;6120906;23;20179;-89
2022/03/12 02:34:29;;;;;;;9.87;5.47;;;;;;;-3.46;57.35;98095.97;6120690;23;20202;-89
2022/03/12 02:36:57;;;;;;;7.20;5.00;;;;;;;-3.42;58.43;98085.13;6121429;23;20184;-89
2022/03/12 02:39:27;;;;;;;10.30;5.80;;;;;;;-3.23;58.23;98101.59;6120339;23;20178;-89
2022/03/12 02:41:59;;;;;;;11.87;4.87;;;;;;;-3.50;57.15;98046.09;6125325;23;20225;-89
2022/03/12 02:44:28;;;;;;;8.20;4.10;;;;;;;-3.20;56.12;98096.63;6123661;23;20441;-88
2022/03/12 02:47:14;;;;;;;7.00;4.10;;;;;;;-3.15;55.40;98100.16;6127569;23;20176;-88
2022/03/12 02:49:46;;;;;;;7.57;4.47;;;;;;;-3.19;55.41;98099.19;6149836;23;20161;-92
2022/03/12 02:52:13;;;;;;;7.93;4.60;;;;;;;-3.36;55.53;98086.13;6149883;23;20225;-91
2022/03/12 02:54:41;;;;;;;7.33;4.27;;;;;;;-3.48;55.36;98088.34;6151215;23;20198;-90
2022/03/12 02:57:09;;;;;;;10.97;6.50;;;;;;;-3.35;56.45;98115.69;6140584;23;20187;-92
2022/03/12 02:59:39;;;;;;;9.73;6.30;;;;;;;-3.76;57.17;98098.56;6123960;23;20628;-93
2022/03/12 03:02:07;;;;;;;9.50;5.50;;;;;;;-4.16;59.03;98062.88;6120486;23;20200;-94
2022/03/12 03:04:35;;;;;;;12.13;6.33;;;;;;;-3.92;58.66;98085.47;6121358;23;20223;-93
2022/03/12 03:07:03;;;;;;;11.07;6.10;;;;;;;-3.96;59.08;98053.31;6122980;23;20164;-92
2022/03/12 03:09:30;;;;;;;13.07;6.80;;;;;;;-3.44;58.33;98128.09;6121732;23;20168;-92
2022/03/12 03:12:03;;;;;;;11.70;6.10;;;;;;;-4.14;57.85;98034.31;6123121;23;20177;-92
2022/03/12 03:14:31;;;;;;;11.70;6.03;;;;;;;-3.84;58.49;98124.47;6122668;23;20203;-90
2022/03/12 03:16:59;;;;;;;11.83;6.37;;;;;;;-4.04;59.41;98129.00;6123578;23;20267;-89
2022/03/12 03:19:27;;;;;;;12.77;5.90;;;;;;;-4.01;59.75;98116.44;6128991;23;20163;-88
2022/03/12 03:21:58;;;;;;;10.47;5.93;;;;;;;-4.27;60.17;98060.09;6133124;23;20215;-88
2022/03/12 03:24:26;;;;;;;12.77;7.40;;;;;;;-3.84;59.43;98129.53;6132289;23;20592;-90
2022/03/12 03:26:58;;;;;;;11.93;5.93;;;;;;;-3.93;59.58;98129.28;6125181;23;20256;-89
2022/03/12 03:29:29;;;;;;;14.97;7.03;;;;;;;-4.50;59.73;98060.25;6121464;23;20486;-87
2022/03/12 03:32:01;;;;;;;14.73;6.57;;;;;;;-4.21;60.86;98138.63;6120270;23;20509;-87
2022/03/12 03:34:32;;;;;;;13.33;6.13;;;;;;;-4.01;60.93;98135.78;6125993;23;20197;-87
2022/03/12 03:37:00;;;;;;;10.60;5.80;;;;;;;-3.94;59.45;98143.63;6124712;23;20173;-89
2022/03/12 03:39:27;;;;;;;9.97;5.80;;;;;;;-3.91;60.09;98141.16;6120628;23;20750;-88
2022/03/12 03:41:54;;;;;;;10.90;5.63;;;;;;;-4.00;59.17;98100.44;6123044;23;20175;-88
2022/03/12 03:44:29;;;;;;;10.57;5.40;;;;;;;-3.99;58.16;98109.75;6120488;23;20556;-90
2022/03/12 03:46:56;;;;;;;9.83;5.50;;;;;;;-3.86;59.01;98126.13;6122717;23;20247;-88
2022/03/12 03:49:24;;;;;;;8.03;4.53;;;;;;;-4.32;57.62;98063.28;6119979;23;20181;-88
2022/03/12 03:51:53;;;;;;;6.97;4.03;;;;;;;-4.05;57.65;98134.00;6123082;23;20168;-89
2022/03/12 03:54:20;;;;;;;6.83;3.80;;;;;;;-4.14;56.95;98109.31;6122215;23;20191;-88
2022/03/12 03:56:47;;;;;;;9.37;5.23;;;;;;;-4.20;58.15;98106.59;6120817;23;20710;-87
2022/03/12 03:59:14;;;;;;;9.83;3.67;;;;;;;-4.05;57.52;98114.63;6121372;23;20798;-88
2022/03/12 04:01:41;;;;;;;9.30;5.80;;;;;;;-4.06;57.52;98092.69;6121861;23;20200;-88
2022/03/12 04:04:12;;;;;;;5.40;3.60;;;;;;;-4.13;57.74;98096.72;6122670;23;20171;-88
2022/03/12 04:06:40;;;;;;;6.73;4.20;;;;;;;-4.04;57.45;98086.00;6121283;23;20173;-88
2022/03/12 04:09:07;;;;;;;24.10;8.43;;;;;;;-4.03;57.72;98079.25;6122251;23;20242;-88
2022/03/12 04:11:34;;;;;;;7.83;3.83;;;;;;;-4.19;58.64;98085.56;6120047;23;20620;-89
2022/03/12 04:14:05;;;;;;;8.23;4.50;;;;;;;-3.82;58.75;98118.66;6122241;23;20206;-89
2022/03/12 04:16:33;;;;;;;7.73;4.13;;;;;;;-3.90;59.23;98122.66;6122749;23;20165;-89
2022/03/12 04:19:06;;;;;;;8.17;3.80;;;;;;;-4.20;60.17;98086.38;6121507;23;20239;-89
2022/03/12 04:21:34;;;;;;;8.87;4.10;;;;;;;-4.23;60.25;98078.72;6122294;23;20489;-89
2022/03/12 04:24:01;;;;;;;8.53;4.60;;;;;;;-4.05;60.88;98119.69;6121085;23;20251;-91
2022/03/12 04:26:30;;;;;;;8.53;4.80;;;;;;;-4.13;61.05;98095.84;6123636;23;20175;-90
2022/03/12 04:28:58;;;;;;;9.17;4.90;;;;;;;-4.19;61.66;98111.72;6122155;23;20165;-90
2022/03/12 04:31:25;;;;;;;7.63;4.33;;;;;;;-4.37;62.61;98080.00;6122228;23;20164;-90
2022/03/12 04:33:52;;;;;;;8.10;4.43;;;;;;;-4.37;61.77;98074.94;6120526;23;20251;-89
2022/03/12 04:36:19;;;;;;;9.47;4.60;;;;;;;-4.11;62.05;98124.56;6119843;23;20647;-89
2022/03/12 04:38:48;;;;;;;6.00;3.70;;;;;;;-4.18;62.49;98125.19;6122718;23;20168;-90
2022/03/12 04:41:17;;;;;;;9.43;4.57;;;;;;;-4.27;61.20;98103.06;6119948;23;20647;-87
2022/03/12 04:43:44;;;;;;;7.37;4.13;;;;;;;-4.44;62.27;98089.06;6122639;23;20627;-89
2022/03/12 04:46:12;;;;;;;6.70;4.23;;;;;;;-4.10;62.22;98131.31;6121489;23;20160;-88
2022/03/12 04:48:39;;;;;;;8.10;4.13;;;;;;;-4.13;62.10;98116.09;6122421;23;20166;-89
2022/03/12 04:51:06;;;;;;;6.57;4.47;;;;;;;-4.36;62.13;98094.34;6121597;23;20934;-89
2022/03/12 04:53:34;;;;;;;7.03;4.80;;;;;;;-4.50;61.59;98088.03;6120922;23;20204;-90
2022/03/12 04:56:01;;;;;;;11.37;4.80;;;;;;;-4.32;61.63;98084.38;6120636;23;20195;-89
2022/03/12 04:58:28;;;;;;;7.37;4.30;;;;;;;-4.62;62.08;98042.19;6120718;23;20494;-90
2022/03/12 05:00:55;;;;;;;9.77;4.67;;;;;;;-4.22;61.38;98098.97;6096310;23;20659;-90
2022/03/12 05:03:24;;;;;;;7.93;4.60;;;;;;;-4.19;58.78;98075.47;6120719;23;20886;-90
2022/03/12 05:05:53;;;;;;;8.63;4.80;;;;;;;-3.95;57.65;98129.25;6122133;23;20408;-90
2022/03/12 05:08:23;;;;;;;9.40;4.47;;;;;;;-4.22;60.53;98063.59;6121859;23;20164;-90
2022/03/12 05:10:54;;;;;;;12.33;5.30;;;;;;;-4.09;59.47;98105.25;6121416;23;20168;-89
2022/03/12 05:13:30;;;;;;;11.57;5.50;;;;;;;-4.29;56.94;98061.72;6122237;23;20414;-89
2022/03/12 05:16:03;;;;;;;6.83;4.47;;;;;;;-3.89;54.93;98123.47;6119916;23;20164;-90
2022/03/12 05:18:30;;;;;;;7.97;4.90;;;;;;;-3.90;55.39;98089.75;6135053;23;20215;-89
2022/03/12 05:20:58;;;;;;;6.93;3.90;;;;;;;-3.57;56.12;98141.28;6140336;23;20223;-88
2022/03/12 05:23:25;;;;;;;8.33;4.47;;;;;;;-3.60;55.50;98120.06;6135766;23;20251;-88
2022/03/12 05:25:53;;;;;;;8.40;4.20;;;;;;;-3.68;56.81;98117.34;6136959;23;20180;-88
2022/03/12 05:28:27;;;;;;;7.27;4.70;;;;;;;-3.35;57.23;98153.66;6137048;23;20168;-89
2022/03/12 05:31:03;;;;;;;12.67;5.60;;;;;;;-3.25;56.62;98151.34;6128862;23;20210;-92
2022/03/12 05:33:31;;;;;;;7.10;5.20;;;;;;;-3.30;55.95;98123.41;6123465;23;20175;-93
2022/03/12 05:35:58;;;;;;;12.30;5.83;;;;;;;-3.38;56.67;98099.56;6127092;23;20180;-91
2022/03/12 05:38:34;;;;;;;13.37;6.10;;;;;;;-3.01;55.73;98150.28;6130385;23;20209;-93
2022/03/12 05:41:10;;;;;;;9.23;5.60;;;;;;;-3.02;54.92;98120.72;6122966;23;20192;-92
2022/03/12 05:43:47;;;;;;;9.13;5.50;;;;;;;-3.05;53.71;98155.28;6122152;23;20175;-93
2022/03/12 05:46:18;;;;;;;7.83;4.20;;;;;;;-3.22;51.53;98154.84;6123611;23;20194;-92
2022/03/12 05:48:48;;;;;;;14.13;5.43;;;;;;;-3.31;53.04;98130.16;6127493;23;20169;-92
2022/03/12 05:51:16;;;;;;;12.23;6.50;;;;;;;-2.84;53.84;98159.16;6141420;23;20239;-94
2022/03/12 05:53:44;;;;;;;10.87;6.30;;;;;;;-3.16;54.43;98155.00;6144787;23;20196;-93
2022/03/12 05:56:11;;;;;;;14.23;6.30;;;;;;;-2.74;54.50;98185.63;6145119;23;20149;-94
2022/03/12 05:58:40;;;;;;;19.23;6.17;;;;;;;-2.69;53.20;98153.59;6145246;23;20173;-92
2022/03/12 06:01:08;;;;;;;9.63;6.10;;;;;;;-2.30;51.86;98179.88;6137061;23;20614;-93
2022/03/12 06:03:35;;;;;;;11.03;4.93;;;;;;;-2.32;50.54;98146.03;6123275;23;20176;-92
2022/03/12 06:06:03;;;;;;;9.57;4.73;;;;;;;-2.11;49.53;98206.50;6123381;23;20255;-92
2022/03/12 06:08:32;;;;;;;6.27;4.63;;;;;;;-2.14;49.97;98170.94;6121994;23;20177;-92
2022/03/12 06:11:00;;;;;;;7.40;4.70;;;;;;;-2.18;48.88;98154.78;6098000;23;20165;-92
2022/03/12 06:13:32;;;;;;;11.53;6.10;;;;;;;-1.89;48.72;98196.84;6122697;23;20578;-93
2022/03/12 06:16:02;;;;;;;7.80;5.10;;;;;;;-2.57;48.76;98138.69;6099495;23;20166;-93
2022/03/12 06:18:37;;;;;;;9.47;5.17;;;;;;;-2.26;49.40;98179.13;6124729;23;20489;-94
2022/03/12 06:21:06;;;;;;;9.77;4.40;;;;;;;-1.73;48.56;98214.13;6124484;23;20174;-94
2022/03/12 06:23:34;;;;;;;10.40;5.23;;;;;;;-2.06;47.75;98129.66;6124287;23;20180;-95
2022/03/12 06:26:03;;;;;;;9.27;5.23;;;;;;;-1.81;47.63;98176.69;6123984;23;20228;-93
2022/03/12 06:28:33;;;;;;;10.33;5.33;;;;;;;-1.50;47.19;98223.88;6125482;23;20183;-94
2022/03/12 06:31:03;;;;;;;9.20;5.33;;;;;;;-1.72;47.14;98218.38;6123999;23;20163;-94
2022/03/12 06:33:32;;;;;;;9.35;5.25;;;;;;;-1.98;46.78;98188.19;6124163;23;20510;-95
2022/03/12 06:36:01;;;;;;;9.77;5.43;;;;;;;-2.02;47.06;98243.09;6128687;23;20195;-93
2022/03/12 06:38:32;;;;;;;11.87;5.67;;;;;;;-2.41;49.73;98243.88;6128534;23;20602;-88
2022/03/12 06:40:59;;;;;;;9.33;5.67;;;;;;;-2.47;49.90;98218.38;6137352;23;20649;-94
2022/03/12 06:43:31;;;;;;;18.30;8.47;;;;;;;-2.25;49.87;98249.34;6129821;23;20179;-93
2022/03/12 06:46:01;;;;;;;11.83;5.90;;;;;;;-2.36;51.24;98254.97;6130885;23;20257;-87
2022/03/12 06:48:32;;;;;;;8.90;5.50;;;;;;;-2.62;52.76;98245.03;6100156;23;20167;-94
2022/03/12 06:51:39;;;;;;;12.63;7.17;;;;;;;-2.80;53.94;98256.38;6129700;23;20176;-93
2022/03/12 06:55:00;;;;;;;7.43;5.40;;;;;;;-2.85;53.10;98257.97;6134841;23;20199;-92
2022/03/12 06:58:29;;;;;;;12.00;6.60;;;;;;;-3.12;55.58;98252.16;6122515;23;20169;-91
2022/03/12 07:01:50;;;;;;;13.20;7.23;;;;;;;-3.24;56.86;98251.84;6126818;23;20195;-90
2022/03/12 07:05:11;;;;;;;10.37;5.00;;;;;;;-3.01;55.85;98254.16;6122818;23;20169;-88
2022/03/12 07:08:32;;;;;;;11.13;5.80;;;;;;;-2.96;56.49;98251.75;6143680;23;20167;-89
2022/03/12 07:11:58;;;;;;;12.07;5.50;;;;;;;-2.96;56.63;98255.16;6139722;23;20164;-87
2022/03/12 07:15:19;;;;;;;10.10;5.43;;;;;;;-3.06;57.32;98247.25;6146540;23;20232;-87
2022/03/12 07:18:40;;;;;;;9.20;5.47;;;;;;;-2.93;56.93;98251.84;6147220;23;20259;-87
2022/03/12 07:22:06;;;;;;;7.43;4.83;;;;;;;-2.99;56.61;98236.50;6147164;23;20165;-89
2022/03/12 07:25:29;;;;;;;15.60;5.17;;;;;;;-2.70;56.32;98251.59;6146181;23;20193;-90
2022/03/12 07:28:51;;;;;;;11.53;5.67;;;;;;;-2.32;56.43;98256.75;6135507;23;20173;-87
2022/03/12 07:32:13;;;;;;;8.83;5.00;;;;;;;-2.66;55.71;98186.66;6138165;23;20570;-92
2022/03/12 07:35:35;;;;;;;9.87;4.93;;;;;;;-2.01;54.79;98254.97;6131390;23;20646;-92
2022/03/12 07:38:58;;;;;;;12.20;5.73;;;;;;;-1.77;54.58;98245.34;6137285;23;20174;-95
2022/03/12 07:42:32;;;;;;;9.63;5.80;;;;;;;-1.73;54.18;98262.34;6141693;23;20171;-90
2022/03/12 07:45:53;;;;;;;8.90;5.13;;;;;;;-1.84;53.66;98268.91;6130272;23;20171;-93
2022/03/12 07:49:17;;;;;;;10.10;5.53;;;;;;;-1.96;54.99;98266.06;6136216;23;20234;-92
2022/03/12 07:52:40;;;;;;;10.53;5.30;;;;;;;-1.79;54.02;98262.22;6149280;23;20180;-92
2022/03/12 07:56:00;;;;;;;8.30;5.70;;;;;;;-1.65;53.51;98267.63;6149091;23;20200;-89
2022/03/12 07:59:21;;;;;;;8.03;4.53;;;;;;;-1.51;52.63;98275.50;6146078;23;20172;-92
2022/03/12 08:02:25;;;;;;;15.43;6.17;;;;;;;-1.32;53.32;98275.91;6146163;23;20178;-95
2022/03/12 08:04:52;;;;;;;6.97;4.50;;;;;;;-1.50;52.40;98244.19;6135351;23;20235;-96
2022/03/12 08:07:24;;;;;;;10.37;5.07;;;;;;;-1.51;51.31;98258.59;6134067;23;20671;-95
2022/03/12 08:11:24;;;;;;;9.47;5.60;;;;;;;-1.73;51.68;98239.50;6133175;23;20219;-92
2022/03/12 08:14:17;;;;;;;12.57;5.27;;;;;;;-1.73;51.89;98302.97;6136923;23;20173;-96
2022/03/12 08:17:38;;;;;;;7.80;4.90;;;;;;;-2.06;52.43;98294.59;6141145;23;20171;-95
2022/03/12 08:21:03;;;;;;;8.70;5.27;;;;;;;-1.97;52.20;98277.03;6133107;23;20198;-92
2022/03/12 08:24:24;;;;;;;7.20;4.40;;;;;;;-1.91;50.46;98269.56;6145158;23;20181;-91
2022/03/12 08:27:45;;;;;;;7.40;4.27;;;;;;;-1.84;51.73;98284.13;6140508;23;20177;-93
2022/03/12 08:30:43;;;;;;;11.17;5.93;;;;;;;-2.00;50.80;98217.75;6142671;23;20172;-92
2022/03/12 08:33:12;;;;;;;6.60;4.83;;;;;;;-1.64;50.96;98251.53;6138166;23;20600;-92
2022/03/12 08:35:39;;;;;;;9.23;5.20;;;;;;;-1.75;51.21;98241.16;6131919;23;20200;-93
2022/03/12 08:38:07;;;;;;;8.63;4.30;;;;;;;-1.43;51.54;98291.75;6132351;23;20168;-94
2022/03/12 08:40:35;;;;;;;5.73;3.97;;;;;;;-1.67;51.45;98287.03;6129806;23;20175;-93
2022/03/12 08:43:03;;;;;;;7.27;4.77;;;;;;;-1.33;51.84;98302.16;6128891;23;20305;-95
2022/03/12 08:45:32;;;;;;;8.37;4.73;;;;;;;-1.03;51.68;98305.28;6126998;23;20260;-88
2022/03/12 08:47:59;;;;;;;8.70;5.03;;;;;;;-1.09;50.94;98251.81;6129033;23;20203;-90
2022/03/12 08:50:27;;;;;;;8.97;4.90;;;;;;;-1.04;50.16;98272.22;6148599;23;20174;-86
2022/03/12 08:52:54;;;;;;;9.43;5.50;;;;;;;-0.94;50.12;98274.13;6148243;23;20168;-87
2022/03/12 08:55:23;;;;;;;8.67;5.57;;;;;;;-0.78;49.91;98301.53;6150039;23;20206;-86
2022/03/12 08:57:52;;;;;;;10.80;5.27;;;;;;;-0.87;49.91;98265.78;6127424;23;20172;-89
2022/03/12 09:00:20;;;;;;;7.73;4.73;;;;;;;-1.08;48.90;98250.13;6125204;23;20194;-87
2022/03/12 09:02:49;;;;;;;7.00;4.80;;;;;;;-1.23;49.24;98227.81;6127714;23;20227;-89
2022/03/12 09:05:19;;;;;;;7.63;4.47;;;;;;;-1.04;48.93;98279.84;6121701;23;20182;-87
2022/03/12 09:07:48;;;;;;;11.93;4.93;;;;;;;-0.87;48.61;98301.38;6124221;23;20185;-88
2022/03/12 09:10:16;;;;;;;9.57;4.73;;;;;;;-1.47;49.68;98260.38;6125899;23;20598;-88
2022/03/12 09:12:44;;;;;;;8.57;4.77;;;;;;;-1.27;49.12;98255.69;6125625;23;20168;-88
2022/03/12 09:15:12;;;;;;;7.97;4.60;;;;;;;-1.19;50.37;98252.47;6122366;23;20281;-88
2022/03/12 09:17:40;;;;;;;9.23;5.23;;;;;;;-0.79;49.75;98274.41;6124793;23;20164;-88
2022/03/12 09:20:08;;;;;;;5.47;4.30;;;;;;;-0.87;49.33;98314.09;6134010;23;20183;-89
2022/03/12 09:22:35;;;;;;;9.10;4.73;;;;;;;-0.99;50.34;98299.44;6148253;23;20222;-87
2022/03/12 09:25:03;;;;;;;6.37;4.63;;;;;;;-0.92;50.57;98285.16;6148232;23;20250;-88
2022/03/12 09:27:30;;;;;;;8.63;5.60;;;;;;;-0.72;51.11;98301.66;6142083;23;20215;-88
2022/03/12 09:29:57;;;;;;;12.27;6.07;;;;;;;-1.00;50.86;98279.09;6143743;23;20160;-91
2022/03/12 09:32:31;;;;;;;6.60;4.63;;;;;;;-1.37;51.25;98203.84;6148400;23;20237;-88
2022/03/12 09:35:03;;;;;;;10.87;5.13;;;;;;;-0.80;50.64;98272.69;6149630;23;20227;-89
2022/03/12 09:37:32;;;;;;;10.00;5.70;;;;;;;-0.75;50.49;98265.13;6144058;23;20228;-87
2022/03/12 09:40:00;;;;;;;9.07;5.30;;;;;;;-0.71;50.96;98252.50;6143269;23;20164;-86
2022/03/12 09:42:30;;;;;;;12.77;6.77;;;;;;;-0.61;51.43;98259.47;6143261;23;20167;-88
2022/03/12 09:45:02;;;;;;;8.70;4.70;;;;;;;-0.82;51.80;98256.53;6138682;23;20170;-87
2022/03/12 09:47:30;;;;;;;11.53;5.47;;;;;;;-0.87;52.22;98281.03;6130888;23;20176;-90
2022/03/12 09:49:57;;;;;;;9.30;5.17;;;;;;;-0.85;52.07;98271.75;6135685;23;20179;-93
2022/03/12 09:53:04;;;;;;;9.87;6.20;;;;;;;-0.37;52.32;98298.03;6130973;23;20178;-88
2022/03/12 09:56:30;;;;;;;6.27;4.10;;;;;;;-0.58;51.21;98300.25;6131941;23;20200;-90
2022/03/12 09:59:52;;;;;;;7.53;4.77;;;;;;;-0.34;50.50;98310.81;6129206;23;20170;-93
2022/03/12 10:03:33;;;;;;;7.70;4.77;;;;;;;-0.25;50.83;98287.22;6071931;23;20207;-94
2022/03/12 10:06:54;;;;;;;10.27;5.03;;;;;;;-0.13;50.26;98301.00;6095553;23;20195;-90
2022/03/12 10:10:18;;;;;;;6.60;4.23;;;;;;;-0.32;51.27;98296.44;6095636;23;20188;-90
2022/03/12 10:13:39;;;;;;;10.27;4.90;;;;;;;-0.59;51.55;98316.31;6097598;23;20271;-93
2022/03/12 10:17:02;;;;;;;5.77;4.63;;;;;;;-0.79;53.02;98299.84;6108461;23;20196;-90
2022/03/12 10:20:39;;;;;;;8.93;5.53;;;;;;;-0.29;51.31;98305.81;6089107;23;20172;-96
2022/03/12 10:23:21;;;;;;;8.13;4.90;;;;;;;-0.31;51.38;98275.25;6089060;23;20282;-88
2022/03/12 10:25:52;;;;;;;9.90;5.50;;;;;;;-0.21;50.79;98261.84;6113106;23;20221;-92
2022/03/12 10:28:22;;;;;;;13.57;5.87;;;;;;;0.15;50.44;98303.97;6105124;23;20232;-95
2022/03/12 10:30:53;;;;;;;11.20;5.53;;;;;;;0.20;50.45;98300.66;6109927;23;20173;-90
2022/03/12 10:33:39;;;;;;;8.57;5.03;;;;;;;0.24;49.92;98304.97;6110949;23;20172;-87
2022/03/12 10:36:19;;;;;;;9.60;5.30;;;;;;;-0.31;50.92;98267.59;6107232;23;20294;-89
2022/03/12 10:38:50;;;;;;;11.73;5.70;;;;;;;0.00;50.04;98297.81;6109355;23;20169;-89
2022/03/12 10:41:18;;;;;;;8.60;5.00;;;;;;;-0.31;50.47;98236.22;6101509;23;20705;-89
2022/03/12 10:43:54;;;;;;;7.73;5.17;;;;;;;-0.16;50.18;98295.00;6103127;23;20169;-88
2022/03/12 10:46:27;;;;;;;7.90;4.37;;;;;;;-0.67;51.72;98292.44;6126698;23;20160;-88
2022/03/12 10:49:10;;;;;;;7.33;4.57;;;;;;;-0.68;50.65;98228.84;6106891;23;20183;-89
2022/03/12 10:51:41;;;;;;;9.60;4.93;;;;;;;-0.26;49.54;98276.19;6114630;23;20192;-87
2022/03/12 10:54:16;;;;;;;7.47;5.20;;;;;;;-0.39;50.35;98283.59;6140042;23;20207;-89
2022/03/12 10:56:46;;;;;;;7.33;4.43;;;;;;;-0.37;50.63;98282.78;6143873;23;20152;-88
2022/03/12 10:59:21;;;;;;;8.23;4.57;;;;;;;-0.14;50.81;98281.47;6143596;23;20163;-88
2022/03/12 11:02:04;;;;;;;7.60;4.20;;;;;;;-0.66;51.89;98219.53;6140042;23;20184;-87
2022/03/12 11:04:34;;;;;;;5.97;4.43;;;;;;;-0.88;53.37;98197.97;6119331;23;20223;-87
2022/03/12 11:07:30;;;;;;;10.93;4.80;;;;;;;-0.31;52.65;98259.97;6119695;23;20169;-92
2022/03/12 11:09:58;;;;;;;8.63;4.37;;;;;;;-0.45;54.41;98263.13;6121461;23;20179;-89
2022/03/12 11:12:38;;;;;;;9.13;5.53;;;;;;;-0.02;54.77;98280.78;6123416;23;20152;-89
2022/03/12 11:15:16;;;;;;;6.97;4.63;;;;;;;-0.10;52.09;98273.03;6122830;23;20251;-88
2022/03/12 11:17:47;;;;;;;8.43;5.40;;;;;;;-0.25;54.72;98247.34;6122976;23;20255;-87
2022/03/12 11:20:28;;;;;;;8.63;5.40;;;;;;;0.14;52.00;98269.16;6124246;23;20212;-86
2022/03/12 11:23:04;;;;;;;8.30;5.17;;;;;;;-0.11;53.13;98252.66;6122597;23;20198;-95
2022/03/12 11:25:36;;;;;;;8.27;4.57;;;;;;;-0.43;55.02;98254.69;6139273;23;20168;-88
2022/03/12 11:28:19;;;;;;;6.90;4.30;;;;;;;-0.17;54.41;98250.88;6146024;23;20179;-85
2022/03/12 11:30:48;;;;;;;7.30;4.83;;;;;;;-0.06;53.93;98233.19;6147208;23;20243;-87
2022/03/12 11:33:21;;;;;;;7.90;4.30;;;;;;;-0.14;53.60;98262.78;6123836;23;20196;-88
2022/03/12 11:36:09;;;;;;;7.80;5.27;;;;;;;-0.22;53.33;98216.00;6139619;23;20220;-87
2022/03/12 11:38:38;;;;;;;7.73;4.33;;;;;;;-0.52;53.17;98159.56;6113670;23;20165;-89
2022/03/12 11:41:25;;;;;;;5.77;4.37;;;;;;;-0.21;50.18;98233.00;6139697;23;20172;-90
2022/03/12 11:43:55;;;;;;;7.50;4.47;;;;;;;0.23;50.47;98259.13;6134686;23;20165;-89
2022/03/12 11:46:25;;;;;;;8.83;5.03;;;;;;;0.03;50.41;98219.75;6139974;23;20165;-89
2022/03/12 11:48:55;;;;;;;5.93;4.57;;;;;;;-0.03;50.04;98230.72;6139531;23;20189;-88
2022/03/12 11:51:25;;;;;;;10.17;5.57;;;;;;;-0.02;51.21;98233.28;6140522;23;20196;-89
2022/03/12 11:53:59;;;;;;;9.87;4.97;;;;;;;0.17;50.88;98200.44;6118257;23;20224;-88
2022/03/12 11:56:32;;;;;;;9.27;5.40;;;;;;;0.58;49.55;98217.09;6116391;23;20227;-89
2022/03/12 11:59:00;;;;;;;10.60;5.20;;;;;;;0.65;50.40;98191.72;6121606;23;20171;-89
2022/03/12 12:01:29;;;;;;;9.10;5.17;;;;;;;0.47;50.55;98241.59;6142140;23;20205;-89
2022/03/12 12:03:58;;;;;;;8.30;4.47;;;;;;;0.07;48.59;98201.13;6122229;23;20175;-89
2022/03/12 12:06:29;;;;;;;6.17;4.10;;;;;;;0.03;49.62;98214.66;6120993;23;20165;-89
2022/03/12 12:09:02;;;;;;;5.97;4.03;;;;;;;-0.33;49.24;98170.03;6115196;23;20173;-90
2022/03/12 12:11:34;;;;;;;7.90;4.73;;;;;;;0.14;47.89;98223.31;6117357;23;20172;-95
2022/03/12 12:14:07;;;;;;;7.63;4.93;;;;;;;0.13;49.57;98170.66;6117824;23;20165;-91
2022/03/12 12:16:38;;;;;;;8.93;5.00;;;;;;;0.75;49.35;98246.19;6118119;23;20215;-88